METAR Data
IDs: Format: Raw Decoded Include TAF

Data at: 2358 UTC 18 Oct 2019

KERV 182355Z AUTO 16006KT 10SM CLR 25/13 A2974 RMK AO2 T02470131 10279 20247
KERV 182335Z AUTO 17009KT 10SM CLR 26/13 A2974 RMK AO2 T02570128
KERV 182315Z AUTO 16010KT 10SM CLR 26/12 A2974 RMK AO2 T02610124
KERV 182255Z AUTO 15008KT 10SM CLR 27/12 A2974 RMK AO2 T02670123
KERV 182235Z AUTO 17011G15KT 10SM CLR 28/13 A2974 RMK AO2 T02750128
KERV 182215Z AUTO 20012KT 10SM CLR 28/12 A2975 RMK AO2 T02750124
KERV 182155Z AUTO 18011G16KT 10SM CLR 28/12 A2975 RMK AO2 T02750119
KERV 182135Z AUTO 19011G15KT 10SM CLR 28/12 A2975 RMK AO2 T02750115
KERV 182115Z AUTO 20013G16KT 10SM CLR 28/12 A2976 RMK AO2 T02750119
KERV 182055Z AUTO 18009KT 10SM CLR 28/12 A2976 RMK AO2 T02750117
KERV 182035Z AUTO 18010G14KT 140V200 10SM CLR 28/12 A2976 RMK AO2 T02750117
KERV 182015Z AUTO 15009G16KT 10SM CLR 28/12 A2977 RMK AO2 T02750117

KT82 182335Z AUTO 17006KT 10SM CLR 25/11 A2974 RMK AO2 T02490107
KT82 182315Z AUTO 18008KT 10SM CLR 26/10 A2974 RMK AO2 T02560104
KT82 182255Z AUTO 18009KT 10SM CLR 26/10 A2975 RMK AO2 T02610101
KT82 182235Z AUTO 20010KT 10SM CLR 27/10 A2975 RMK AO2 T02660097
KT82 182215Z AUTO 19008G17KT 10SM CLR 27/10 A2975 RMK AO2 T02720099
KT82 182155Z AUTO 19008KT 10SM CLR 27/10 A2975 RMK AO2 T02730096
KT82 182135Z AUTO 17009KT 10SM CLR 27/09 A2975 RMK AO2 T02740094
KT82 182115Z AUTO 16007KT 10SM CLR 27/09 A2975 RMK AO2 T02730089
KT82 182055Z AUTO 14007KT 10SM CLR 27/09 A2975 RMK AO2 T02720091
KT82 182035Z AUTO 19008KT 10SM CLR 28/09 A2975 RMK AO2 T02750092
KT82 182015Z AUTO 20008KT 160V220 10SM CLR 27/09 A2976 RMK AO2 T02720092

KJCT 182351Z AUTO 16009KT 10SM CLR 28/13 A2972 RMK AO2 SLP034 T02780128 10311 20267 55001
KJCT 182251Z AUTO 19009KT 10SM CLR 30/12 A2970 RMK AO2 SLP028 T03000122
KJCT 182151Z AUTO 21010KT 10SM CLR 31/12 A2971 RMK AO2 SLP030 T03110122
KJCT 182051Z AUTO 18009KT 150V210 10SM CLR 31/11 A2972 RMK AO2 SLP032 T03060111 56032

K5C1 182355Z AUTO 00000KT 10SM CLR 23/13 A2975 RMK AO1
K5C1 182335Z AUTO 00000KT 10SM CLR 24/13 A2976 RMK AO1
K5C1 182315Z AUTO 00000KT 10SM CLR 25/12 A2976 RMK AO1
K5C1 182255Z AUTO 20007KT 10SM CLR 25/12 A2976 RMK AO1
K5C1 182235Z AUTO 00000KT 10SM CLR 25/12 A2976 RMK AO1
K5C1 182215Z AUTO 21006KT 10SM CLR 25/12 A2976 RMK AO1
K5C1 182155Z AUTO 19006KT 150V210 10SM CLR 25/12 A2977 RMK AO1
K5C1 182135Z AUTO 16010KT 10SM CLR 25/12 A2977 RMK AO1
K5C1 182115Z AUTO 19010KT 10SM CLR 25/12 A2977 RMK AO1
K5C1 182055Z AUTO 16007KT 10SM CLR 25/12 A2978 RMK AO1
K5C1 182035Z AUTO 17007KT 10SM CLR 25/12 A2978 RMK AO1
K5C1 182015Z AUTO 15004KT 10SM CLR 25/11 A2979 RMK AO1

KHDO 182351Z AUTO 15008KT 10SM CLR 26/14 A2972 RMK AO2 SLP051 T02560144 10289 20239 56008
KHDO 182251Z AUTO 15010KT 10SM CLR 28/14 A2972 RMK AO2 SLP051 T02830139
KHDO 182151Z AUTO 17008KT 10SM CLR 29/13 A2973 RMK AO2 SLP053 T02890133
KHDO 182051Z AUTO 16010KT 10SM CLR 28/13 A2974 RMK AO2 SLP059 T02780133 56035

KUVA 182355Z AUTO 13005KT 10SM CLR 26/16 A2972 RMK AO2 T02590155 10277 20222
KUVA 182335Z AUTO 15008KT 10SM CLR 27/16 A2972 RMK AO2 T02660156
KUVA 182315Z AUTO 16010KT 10SM CLR 27/16 A2972 RMK AO2 T02710158
KUVA 182255Z AUTO 16011KT 10SM CLR 27/16 A2973 RMK AO2 T02720160
KUVA 182235Z AUTO 15008KT 10SM CLR 27/16 A2973 RMK AO2 T02730160
KUVA 182215Z AUTO 15007G14KT 100V160 10SM CLR 27/16 A2973 RMK AO2 T02740159
KUVA 182155Z AUTO 14009KT 10SM CLR 27/16 A2973 RMK AO2 T02740157
KUVA 182135Z AUTO 14008G14KT 10SM CLR 27/16 A2973 RMK AO2 T02730156
KUVA 182115Z AUTO 14010G15KT 10SM CLR 28/16 A2974 RMK AO2 T02760159
KUVA 182055Z AUTO 16012KT 10SM CLR 27/16 A2974 RMK AO2 T02720161
KUVA 182035Z AUTO 14010G14KT 10SM CLR 26/16 A2975 RMK AO2 T02640158
KUVA 182015Z AUTO 16007KT 10SM CLR 26/16 A2976 RMK AO2 T02590156

KSAT 182351Z 14008KT 10SM CLR 26/13 A2972 RMK AO2 SLP050 T02560128 10283 20233 56010
KSAT 182251Z 15007KT 10SM CLR 28/13 A2973 RMK AO2 SLP050 T02780133
KSAT 182151Z 17008KT 10SM CLR 28/12 A2974 RMK AO2 SLP054 T02780122
KSAT 182051Z 14008KT 10SM CLR 27/12 A2975 RMK AO2 SLP059 T02720117 56030

KSSF 182353Z 14005KT 10SM CLR 24/14 A2970 RMK AO2 SLP050 T02440144 10278 20239 56009
KSSF 182253Z 16006KT 10SM CLR 27/13 A2970 RMK AO2 SLP050 T02720133
KSSF 182153Z VRB03KT 10SM CLR 28/13 A2971 RMK AO2 SLP054 T02780133
KSSF 182053Z 20005KT 10SM CLR 28/13 A2972 RMK AO2 SLP057 T02780133 56031